createdAt,value
2023-02-03T00:00:01.701Z,13.13
2023-02-03T00:02:29.364Z,19.27
2023-02-03T00:04:57.292Z,12.33
2023-02-03T00:07:24.960Z,13.67
2023-02-03T00:09:52.785Z,12.57
2023-02-03T00:12:20.435Z,13.90
2023-02-03T00:14:49.610Z,12.20
2023-02-03T00:17:17.435Z,19.07
2023-02-03T00:19:45.268Z,11.40
2023-02-03T00:22:13.473Z,17.77
2023-02-03T00:24:41.137Z,13.13
2023-02-03T00:27:08.970Z,14.50
2023-02-03T00:29:36.661Z,10.73
2023-02-03T00:32:06.497Z,12.93
2023-02-03T00:34:34.383Z,11.43
2023-02-03T00:37:02.619Z,15.03
2023-02-03T00:39:30.301Z,12.90
2023-02-03T00:41:58.105Z,14.37
2023-02-03T00:44:25.907Z,13.33
2023-02-03T00:46:54.652Z,13.03
2023-02-03T00:49:23.686Z,10.60
2023-02-03T00:51:52.072Z,11.73
2023-02-03T00:54:19.772Z,14.67
2023-02-03T00:56:47.602Z,18.77
2023-02-03T00:59:15.348Z,12.77
2023-02-03T01:01:43.104Z,15.40
2023-02-03T01:04:10.801Z,15.40
2023-02-03T01:06:41.204Z,13.97
2023-02-03T01:09:08.902Z,13.27
2023-02-03T01:11:36.822Z,12.83
2023-02-03T01:14:04.485Z,10.73
2023-02-03T01:16:36.226Z,11.17
2023-02-03T01:19:03.990Z,14.20
2023-02-03T01:24:09.700Z,14.20
2023-02-03T01:26:37.618Z,9.47
2023-02-03T01:29:05.403Z,14.00
2023-02-03T01:31:34.922Z,14.13
2023-02-03T01:34:02.972Z,13.80
2023-02-03T01:36:31.499Z,11.00
2023-02-03T01:38:59.335Z,13.73
2023-02-03T01:41:29.719Z,15.43
2023-02-03T01:43:58.405Z,10.40
2023-02-03T01:46:28.742Z,11.03
2023-02-03T01:49:02.891Z,12.07
2023-02-03T01:51:31.031Z,10.10
2023-02-03T01:54:00.533Z,11.77
2023-02-03T01:56:31.231Z,10.13
2023-02-03T01:59:00.940Z,10.43
2023-02-03T02:01:29.352Z,12.50
2023-02-03T02:03:57.887Z,14.80
2023-02-03T02:06:25.785Z,11.00
2023-02-03T02:08:54.279Z,8.73
2023-02-03T02:11:22.392Z,12.43
2023-02-03T02:13:52.321Z,9.90
2023-02-03T02:16:23.343Z,11.83
2023-02-03T02:18:58.505Z,13.50
2023-02-03T02:21:54.978Z,10.07
2023-02-03T02:24:53.247Z,11.27
2023-02-03T02:27:31.531Z,9.43
2023-02-03T02:30:37.932Z,9.90
2023-02-03T02:33:12.006Z,8.07
2023-02-03T02:35:58.527Z,9.60
2023-02-03T02:38:33.953Z,10.53
2023-02-03T02:41:04.831Z,13.20
2023-02-03T02:43:37.177Z,12.13
2023-02-03T02:46:07.372Z,7.17
2023-02-03T02:48:37.478Z,7.30
2023-02-03T02:51:06.158Z,8.33
2023-02-03T02:53:54.427Z,10.40
2023-02-03T02:56:22.213Z,9.57
2023-02-03T02:58:50.728Z,11.03
2023-02-03T03:01:19.388Z,10.77
2023-02-03T03:03:48.701Z,10.17
2023-02-03T03:06:19.098Z,12.40
2023-02-03T03:08:49.254Z,9.30
2023-02-03T03:11:17.817Z,6.80
2023-02-03T03:13:47.864Z,11.73
2023-02-03T03:16:15.973Z,7.83
2023-02-03T03:18:44.791Z,7.23
2023-02-03T03:21:15.561Z,8.67
2023-02-03T03:23:43.858Z,9.13
2023-02-03T03:26:14.049Z,6.87
2023-02-03T03:28:45.278Z,7.53
2023-02-03T03:31:13.279Z,6.60
2023-02-03T03:33:41.127Z,9.60
2023-02-03T03:36:14.197Z,9.03
2023-02-03T03:38:43.356Z,11.90
2023-02-03T03:41:14.360Z,13.30
2023-02-03T03:43:43.487Z,7.80
2023-02-03T03:46:13.523Z,8.80
2023-02-03T03:48:42.566Z,6.13
2023-02-03T03:51:12.111Z,10.20
2023-02-03T03:53:42.245Z,9.23
2023-02-03T03:56:14.119Z,10.53
2023-02-03T03:58:41.871Z,8.50
2023-02-03T04:01:09.975Z,8.30
2023-02-03T04:03:39.945Z,8.53
2023-02-03T04:06:09.794Z,8.60
2023-02-03T04:08:39.308Z,7.57
2023-02-03T04:11:08.683Z,11.73
2023-02-03T04:13:36.435Z,7.87
2023-02-03T04:16:04.302Z,11.70
2023-02-03T04:18:32.142Z,7.17
2023-02-03T04:20:59.886Z,7.57
2023-02-03T04:23:27.855Z,11.03
2023-02-03T04:25:55.647Z,11.00
2023-02-03T04:28:25.015Z,7.20
2023-02-03T04:30:52.756Z,11.20
2023-02-03T04:33:20.618Z,7.93
2023-02-03T04:35:48.305Z,9.87
2023-02-03T04:38:16.342Z,8.27
2023-02-03T04:40:45.566Z,10.27
2023-02-03T04:43:14.244Z,6.23
2023-02-03T04:45:43.433Z,8.87
2023-02-03T04:48:12.375Z,10.40
2023-02-03T04:50:40.202Z,9.33
2023-02-03T04:53:09.277Z,10.63
2023-02-03T04:55:37.031Z,10.70
2023-02-03T04:58:04.928Z,11.73
2023-02-03T05:00:32.906Z,11.70
2023-02-03T05:03:11.882Z,13.10
2023-02-03T05:05:39.799Z,9.00
2023-02-03T05:08:08.254Z,9.87
2023-02-03T05:10:39.527Z,5.80
2023-02-03T05:13:07.354Z,7.40
2023-02-03T05:15:35.157Z,7.70
2023-02-03T05:18:03.675Z,8.63
2023-02-03T05:20:32.906Z,9.60
2023-02-03T05:23:01.314Z,7.70
2023-02-03T05:25:30.691Z,6.57
2023-02-03T05:28:00.279Z,9.50
2023-02-03T05:30:29.634Z,7.50
2023-02-03T05:32:57.511Z,6.70
2023-02-03T05:35:26.092Z,5.53
2023-02-03T05:37:55.304Z,12.67
2023-02-03T05:40:40.571Z,9.07
2023-02-03T05:43:09.071Z,8.10
2023-02-03T05:45:36.993Z,8.57
2023-02-03T05:48:05.114Z,9.57
2023-02-03T05:50:33.560Z,9.07
2023-02-03T05:53:02.961Z,9.07
2023-02-03T05:55:32.152Z,10.93
2023-02-03T05:58:01.254Z,7.80
2023-02-03T06:00:44.299Z,7.13
2023-02-03T06:03:42.671Z,7.03
2023-02-03T06:06:12.194Z,6.87
2023-02-03T06:08:46.876Z,8.23
2023-02-03T06:11:18.334Z,6.70
2023-02-03T06:13:46.264Z,5.23
2023-02-03T06:16:14.737Z,5.43
2023-02-03T06:18:42.971Z,5.40
2023-02-03T06:21:11.236Z,6.37
2023-02-03T06:23:39.156Z,7.37
2023-02-03T06:26:08.374Z,6.47
2023-02-03T06:28:38.133Z,10.37
2023-02-03T06:31:06.485Z,7.33
2023-02-03T06:33:34.498Z,9.43
2023-02-03T06:36:02.584Z,7.90
2023-02-03T06:38:30.379Z,7.80
2023-02-03T06:40:59.183Z,4.63
2023-02-03T06:43:28.446Z,6.70
2023-02-03T06:45:56.425Z,7.67
2023-02-03T06:48:24.326Z,8.77
2023-02-03T06:50:52.294Z,5.20
2023-02-03T06:53:20.360Z,4.40
2023-02-03T06:55:48.924Z,3.67
2023-02-03T06:58:17.083Z,6.73
2023-02-03T07:00:46.338Z,4.27
2023-02-03T07:03:14.206Z,7.07
2023-02-03T07:05:42.021Z,3.90
2023-02-03T07:08:09.873Z,6.03
2023-02-03T07:10:37.652Z,6.80
2023-02-03T07:13:06.038Z,5.37
2023-02-03T07:15:33.791Z,5.53
2023-02-03T07:18:02.934Z,6.70
2023-02-03T07:20:32.549Z,7.50
2023-02-03T07:23:00.350Z,4.67
2023-02-03T07:28:08.271Z,5.40
2023-02-03T07:30:36.083Z,5.97
2023-02-03T07:33:07.940Z,6.10
2023-02-03T07:35:35.662Z,4.00
2023-02-03T07:38:03.520Z,9.17
2023-02-03T07:40:31.206Z,10.33
2023-02-03T07:43:00.011Z,6.50
2023-02-03T07:45:27.998Z,4.17
2023-02-03T07:47:55.880Z,7.27
2023-02-03T07:50:25.299Z,5.10
2023-02-03T07:52:53.292Z,6.93
2023-02-03T07:55:20.966Z,6.63
2023-02-03T07:57:51.919Z,8.43
2023-02-03T08:00:20.524Z,8.53
2023-02-03T08:02:48.385Z,6.47
2023-02-03T08:05:16.541Z,6.50
2023-02-03T08:07:46.025Z,7.17
2023-02-03T08:10:15.372Z,8.10
2023-02-03T08:12:45.266Z,6.37
2023-02-03T08:15:13.537Z,7.97
2023-02-03T08:17:42.132Z,10.07
2023-02-03T08:20:10.454Z,6.77
2023-02-03T08:22:39.362Z,7.83
2023-02-03T08:25:09.429Z,5.83
2023-02-03T08:27:37.187Z,5.07
2023-02-03T08:30:05.939Z,10.23
2023-02-03T08:32:33.816Z,6.47
2023-02-03T08:35:01.579Z,7.07
2023-02-03T08:37:32.062Z,6.37
2023-02-03T08:39:59.957Z,8.00
2023-02-03T08:42:29.241Z,9.70
2023-02-03T08:44:57.732Z,5.13
2023-02-03T08:47:25.695Z,8.77
2023-02-03T08:49:53.370Z,6.43
2023-02-03T08:52:21.253Z,7.30
2023-02-03T08:54:49.039Z,7.30
2023-02-03T08:57:18.971Z,6.43
2023-02-03T08:59:48.341Z,7.53
2023-02-03T09:02:17.416Z,7.43
2023-02-03T09:04:45.518Z,10.27
2023-02-03T09:07:13.510Z,8.70
2023-02-03T09:09:41.364Z,6.73
2023-02-03T09:12:09.096Z,8.90
2023-02-03T09:14:37.249Z,8.20
2023-02-03T09:17:08.213Z,9.30
2023-02-03T09:19:39.360Z,9.37
2023-02-03T09:22:07.179Z,9.30
2023-02-03T09:24:35.300Z,12.63
2023-02-03T09:27:03.179Z,8.87
2023-02-03T09:29:30.933Z,9.40
2023-02-03T09:32:00.008Z,9.67
2023-02-03T09:34:42.345Z,10.27
2023-02-03T09:37:10.276Z,9.03
2023-02-03T09:39:38.198Z,11.10
2023-02-03T09:42:31.192Z,12.57
2023-02-03T09:45:03.957Z,12.73
2023-02-03T09:47:34.936Z,10.80
2023-02-03T09:50:04.926Z,10.53
2023-02-03T09:52:33.718Z,9.83
2023-02-03T09:55:03.847Z,10.00
2023-02-03T09:57:33.494Z,10.50
2023-02-03T10:00:03.391Z,11.80
2023-02-03T10:02:39.880Z,11.83
2023-02-03T10:05:16.673Z,10.97
2023-02-03T10:07:50.247Z,11.40
2023-02-03T10:10:19.622Z,10.73
2023-02-03T10:12:57.188Z,9.40
2023-02-03T10:15:50.738Z,11.10
2023-02-03T10:18:20.149Z,11.63
2023-02-03T10:20:51.245Z,9.80
2023-02-03T10:23:21.273Z,10.70
2023-02-03T10:25:50.711Z,11.47
2023-02-03T10:28:19.677Z,11.47
2023-02-03T10:30:49.714Z,12.90
2023-02-03T10:33:18.469Z,10.73
2023-02-03T10:35:52.987Z,12.07
2023-02-03T10:38:26.426Z,10.50
2023-02-03T10:40:54.488Z,17.10
2023-02-03T10:43:40.613Z,11.80
2023-02-03T10:46:08.335Z,12.40
2023-02-03T10:48:36.211Z,13.33
2023-02-03T10:51:05.558Z,12.83
2023-02-03T10:53:35.506Z,13.30
2023-02-03T10:56:05.048Z,13.47
2023-02-03T10:58:34.626Z,13.33
2023-02-03T11:01:08.162Z,11.77
2023-02-03T11:03:36.059Z,12.53
2023-02-03T11:06:10.508Z,11.27
2023-02-03T11:08:39.636Z,13.70
2023-02-03T11:11:08.385Z,15.73
2023-02-03T11:13:36.349Z,13.10
2023-02-03T11:16:05.225Z,14.00
2023-02-03T11:18:41.364Z,11.00
2023-02-03T11:21:12.390Z,12.10
2023-02-03T11:23:46.050Z,11.50
2023-02-03T11:26:14.531Z,12.57
2023-02-03T11:28:43.877Z,13.50
2023-02-03T11:31:29.875Z,13.90
2023-02-03T11:33:59.475Z,12.07
2023-02-03T11:36:29.679Z,11.93
2023-02-03T11:39:11.052Z,13.70
2023-02-03T11:41:39.420Z,12.13
2023-02-03T11:44:23.026Z,15.73
2023-02-03T11:46:52.657Z,13.17
2023-02-03T11:49:47.914Z,12.80
2023-02-03T11:52:33.519Z,12.13
2023-02-03T11:55:04.923Z,12.63
2023-02-03T11:57:37.595Z,9.77
2023-02-03T12:00:29.057Z,14.00
2023-02-03T12:03:07.556Z,11.77
2023-02-03T12:05:56.400Z,13.87
2023-02-03T12:08:36.543Z,11.10
2023-02-03T12:11:10.233Z,13.37
2023-02-03T12:13:46.191Z,11.10
2023-02-03T12:16:27.900Z,14.17
2023-02-03T12:19:01.199Z,12.87
2023-02-03T12:21:38.086Z,13.23
2023-02-03T12:24:10.669Z,10.23
2023-02-03T12:26:42.460Z,11.80
2023-02-03T12:29:12.053Z,10.37
2023-02-03T12:31:40.871Z,11.77
2023-02-03T12:34:14.721Z,12.33
2023-02-03T12:36:43.616Z,13.87
2023-02-03T12:39:17.134Z,13.90
2023-02-03T12:41:47.369Z,10.07
2023-02-03T12:44:17.555Z,11.60
2023-02-03T12:46:46.126Z,11.20
2023-02-03T12:49:16.262Z,20.33
2023-02-03T12:51:46.394Z,11.07
2023-02-03T12:54:24.575Z,13.70
2023-02-03T12:56:52.493Z,8.53
2023-02-03T12:59:23.018Z,9.43
2023-02-03T13:01:53.634Z,15.40
2023-02-03T13:04:27.125Z,7.73
2023-02-03T13:06:57.951Z,10.60
2023-02-03T13:09:29.968Z,10.87
2023-02-03T13:12:00.183Z,14.07
2023-02-03T13:14:29.745Z,12.37
2023-02-03T13:16:59.947Z,9.10
2023-02-03T13:19:29.315Z,7.20
2023-02-03T13:21:57.057Z,9.40
2023-02-03T13:24:26.030Z,9.20
2023-02-03T13:27:03.922Z,11.50
2023-02-03T13:29:43.660Z,10.63
2023-02-03T13:32:21.758Z,10.67
2023-02-03T13:35:05.833Z,10.00
2023-02-03T13:37:43.764Z,11.30
2023-02-03T13:40:17.520Z,12.87
2023-02-03T13:42:47.771Z,14.73
2023-02-03T13:45:20.111Z,16.53
2023-02-03T13:47:48.153Z,10.10
2023-02-03T13:50:20.691Z,9.33
2023-02-03T13:52:56.279Z,13.50
2023-02-03T13:55:34.766Z,10.80
2023-02-03T13:58:05.133Z,7.87
2023-02-03T14:01:04.834Z,8.13
2023-02-03T14:03:43.668Z,12.03
2023-02-03T14:07:01.906Z,8.03
2023-02-03T14:09:42.618Z,8.57
2023-02-03T14:12:55.803Z,11.90
2023-02-03T14:15:37.022Z,11.80
2023-02-03T14:18:32.273Z,9.53
2023-02-03T14:21:22.172Z,13.40
2023-02-03T14:24:09.684Z,12.27
2023-02-03T14:26:41.208Z,9.63
2023-02-03T14:29:09.996Z,8.30
2023-02-03T14:32:01.034Z,11.73
2023-02-03T14:34:32.865Z,13.00
2023-02-03T14:37:11.454Z,11.73
2023-02-03T14:40:01.309Z,7.50
2023-02-03T14:42:45.555Z,6.80
2023-02-03T14:45:19.545Z,10.40
2023-02-03T14:47:56.499Z,7.80
2023-02-03T14:50:35.224Z,10.97
2023-02-03T14:53:17.663Z,8.37
2023-02-03T14:55:50.859Z,10.20
2023-02-03T14:58:24.421Z,8.83
2023-02-03T15:00:54.664Z,12.53
2023-02-03T15:03:30.179Z,11.03
2023-02-03T15:05:59.957Z,14.67
2023-02-03T15:08:33.172Z,12.60
2023-02-03T15:11:01.255Z,17.73
2023-02-03T15:13:30.261Z,17.60
2023-02-03T15:15:59.048Z,12.63
2023-02-03T15:18:31.799Z,19.43
2023-02-03T15:20:59.736Z,21.90
2023-02-03T15:23:43.215Z,16.83
2023-02-03T15:26:13.115Z,18.20
2023-02-03T15:28:40.936Z,12.33
2023-02-03T15:31:11.174Z,23.30
2023-02-03T15:33:40.533Z,18.67
2023-02-03T15:36:10.142Z,18.27
2023-02-03T15:38:39.748Z,15.20
2023-02-03T15:41:08.280Z,18.70
2023-02-03T15:43:38.329Z,17.37
2023-02-03T15:46:07.564Z,21.73
2023-02-03T15:48:38.253Z,17.97
2023-02-03T15:51:10.968Z,17.83
2023-02-03T15:53:47.775Z,17.83
2023-02-03T15:56:21.438Z,19.57
2023-02-03T15:58:49.704Z,22.13
2023-02-03T16:01:18.227Z,17.50
2023-02-03T16:03:47.477Z,17.00
2023-02-03T16:06:19.263Z,17.20
2023-02-03T16:08:48.256Z,13.90
2023-02-03T16:11:24.930Z,18.23
2023-02-03T16:13:52.688Z,16.43
2023-02-03T16:16:22.833Z,14.27
2023-02-03T16:18:52.522Z,15.70
2023-02-03T16:21:29.943Z,14.70
2023-02-03T16:23:58.075Z,15.27
2023-02-03T16:26:26.307Z,15.10
2023-02-03T16:29:30.200Z,14.27
2023-02-03T16:32:16.597Z,11.93
2023-02-03T16:35:02.176Z,15.67
2023-02-03T16:37:50.044Z,12.17
2023-02-03T16:40:38.692Z,10.27
2023-02-03T16:43:23.950Z,15.17
2023-02-03T16:46:12.529Z,14.80
2023-02-03T16:48:58.309Z,12.23
2023-02-03T16:51:25.974Z,15.20
2023-02-03T16:53:55.059Z,12.83
2023-02-03T16:56:23.119Z,13.63
2023-02-03T16:58:50.903Z,20.10
2023-02-03T17:01:18.599Z,18.73
2023-02-03T17:03:46.841Z,17.87
2023-02-03T17:06:14.978Z,16.83
2023-02-03T17:08:43.795Z,21.47
2023-02-03T17:11:16.388Z,16.67
2023-02-03T17:13:45.200Z,17.63
2023-02-03T17:16:13.945Z,14.57
2023-02-03T17:18:41.786Z,17.37
2023-02-03T17:21:10.621Z,13.03
2023-02-03T17:23:38.616Z,14.80
2023-02-03T17:26:06.532Z,24.43
2023-02-03T17:28:35.939Z,16.70
2023-02-03T17:31:05.841Z,15.17
2023-02-03T17:33:33.924Z,15.67
2023-02-03T17:36:03.568Z,16.93
2023-02-03T17:38:31.387Z,17.70
2023-02-03T17:54:52.493Z,21.97
2023-02-03T17:57:21.177Z,23.07
2023-02-03T17:59:56.643Z,16.97
2023-02-03T18:02:24.634Z,20.13
2023-02-03T18:04:52.385Z,19.30
2023-02-03T18:07:20.128Z,16.83
2023-02-03T18:09:47.897Z,21.83
2023-02-03T18:12:15.675Z,19.00
2023-02-03T18:14:43.382Z,13.13
2023-02-03T18:17:12.608Z,15.20
2023-02-03T18:19:42.678Z,14.30
2023-02-03T18:22:12.552Z,17.53
2023-02-03T18:24:40.482Z,15.37
2023-02-03T18:27:08.464Z,15.67
2023-02-03T18:29:42.874Z,16.80
2023-02-03T18:32:12.076Z,19.47
2023-02-03T18:34:40.392Z,19.80
2023-02-03T18:37:13.878Z,18.90
2023-02-03T18:39:41.632Z,14.37
2023-02-03T18:42:09.438Z,18.83
2023-02-03T18:44:37.232Z,13.83
2023-02-03T18:47:07.769Z,16.63
2023-02-03T18:49:37.602Z,17.53
2023-02-03T18:52:05.838Z,11.60
2023-02-03T18:54:34.320Z,14.13
2023-02-03T18:57:07.374Z,11.50
2023-02-03T18:59:35.082Z,17.77
2023-02-03T19:02:02.895Z,11.83
2023-02-03T19:04:31.021Z,19.70
2023-02-03T19:07:00.112Z,18.10
2023-02-03T19:09:31.387Z,18.50
2023-02-03T19:11:59.737Z,15.73
2023-02-03T19:14:28.400Z,18.63
2023-02-03T19:16:56.142Z,20.50
2023-02-03T19:19:23.945Z,19.30
2023-02-03T19:21:52.023Z,17.73
2023-02-03T19:24:21.712Z,16.93
2023-02-03T19:26:49.374Z,14.77
2023-02-03T19:29:17.197Z,23.97
2023-02-03T19:31:44.994Z,18.00
2023-02-03T19:34:15.016Z,18.50
2023-02-03T19:36:42.779Z,16.80
2023-02-03T19:39:10.513Z,20.37
2023-02-03T19:41:39.546Z,19.20
2023-02-03T19:44:07.474Z,9.60
2023-02-03T19:46:37.218Z,26.00
2023-02-03T19:49:06.620Z,13.40
2023-02-03T19:51:34.871Z,18.83
2023-02-03T19:54:03.157Z,14.83
2023-02-03T19:56:30.909Z,21.13
2023-02-03T19:59:00.028Z,15.90
2023-02-03T20:01:28.806Z,17.83
2023-02-03T20:03:58.372Z,19.20
2023-02-03T20:06:26.476Z,19.60
2023-02-03T20:08:56.224Z,18.30
2023-02-03T20:11:23.933Z,15.77
2023-02-03T20:13:51.829Z,15.13
2023-02-03T20:16:21.288Z,23.73
2023-02-03T20:18:49.307Z,13.97
2023-02-03T20:21:16.997Z,13.27
2023-02-03T20:23:44.838Z,17.10
2023-02-03T20:26:14.180Z,14.77
2023-02-03T20:28:42.004Z,11.30
2023-02-03T20:31:09.939Z,19.87
2023-02-03T20:33:39.054Z,14.70
2023-02-03T20:36:07.566Z,18.30
2023-02-03T20:38:35.286Z,19.53
2023-02-03T20:41:03.010Z,19.47
2023-02-03T20:43:31.813Z,16.80
2023-02-03T20:45:59.505Z,15.00
2023-02-03T20:48:27.452Z,15.97
2023-02-03T20:50:56.456Z,13.47
2023-02-03T20:53:24.663Z,8.90
2023-02-03T20:55:52.532Z,14.43
2023-02-03T20:58:22.373Z,14.60
2023-02-03T21:00:50.111Z,15.33
2023-02-03T21:03:36.153Z,22.93
2023-02-03T21:06:12.712Z,12.07
2023-02-03T21:08:40.454Z,18.53
2023-02-03T21:11:11.384Z,15.03
2023-02-03T21:13:39.210Z,13.07
2023-02-03T21:16:12.589Z,11.47
2023-02-03T21:18:41.052Z,13.73
2023-02-03T21:21:14.227Z,18.50
2023-02-03T21:23:47.203Z,13.57
2023-02-03T21:26:17.631Z,15.50
2023-02-03T21:28:45.448Z,14.87
2023-02-03T21:31:27.374Z,12.07
2023-02-03T21:33:55.323Z,14.97
2023-02-03T21:36:25.123Z,15.27
2023-02-03T21:38:53.519Z,13.67
2023-02-03T21:41:21.768Z,13.00
2023-02-03T21:43:51.547Z,16.53
2023-02-03T21:46:19.396Z,14.93
2023-02-03T21:48:50.608Z,8.90
2023-02-03T21:51:20.425Z,13.37
2023-02-03T21:53:52.587Z,13.97
2023-02-03T21:56:21.115Z,14.97
2023-02-03T21:58:50.742Z,13.63
2023-02-03T22:01:19.114Z,16.23
2023-02-03T22:03:47.995Z,12.67
2023-02-03T22:06:22.682Z,14.97
2023-02-03T22:08:52.464Z,13.53
2023-02-03T22:11:20.740Z,14.47
2023-02-03T22:13:48.556Z,18.47
2023-02-03T22:16:17.164Z,12.97
2023-02-03T22:18:45.403Z,12.20
2023-02-03T22:21:13.218Z,20.00
2023-02-03T22:23:40.972Z,9.17
2023-02-03T22:26:10.445Z,17.77
2023-02-03T22:28:38.221Z,19.23
2023-02-03T22:31:07.515Z,15.83
2023-02-03T22:33:35.351Z,15.47
2023-02-03T22:36:06.412Z,12.37
2023-02-03T22:38:34.324Z,12.33
2023-02-03T22:41:02.154Z,16.33
2023-02-03T22:43:31.402Z,17.97
2023-02-03T22:46:01.550Z,18.50
2023-02-03T22:48:29.408Z,12.10
2023-02-03T22:50:58.206Z,11.90
2023-02-03T22:53:26.012Z,16.27
2023-02-03T22:55:53.698Z,15.60
2023-02-03T22:58:21.412Z,14.57
2023-02-03T23:00:50.487Z,18.30
2023-02-03T23:03:18.220Z,16.20
2023-02-03T23:05:46.001Z,11.70
2023-02-03T23:08:13.749Z,15.20
2023-02-03T23:10:41.461Z,12.50
2023-02-03T23:13:09.318Z,14.87
2023-02-03T23:15:37.022Z,16.70
2023-02-03T23:18:06.279Z,13.83
2023-02-03T23:20:33.982Z,15.43
2023-02-03T23:23:01.698Z,21.87
2023-02-03T23:25:29.352Z,22.03
2023-02-03T23:27:57.049Z,17.43
2023-02-03T23:30:24.812Z,13.67
2023-02-03T23:32:52.492Z,15.03
2023-02-03T23:35:39.006Z,18.17
2023-02-03T23:38:06.701Z,19.97
2023-02-03T23:40:34.412Z,12.90
2023-02-03T23:43:03.158Z,11.63
2023-02-03T23:45:31.038Z,14.03
2023-02-03T23:47:58.746Z,21.13
2023-02-03T23:50:27.815Z,25.30
2023-02-03T23:52:55.629Z,21.43
2023-02-03T23:55:23.522Z,21.57
2023-02-03T23:57:51.287Z,22.90
